Pamelia, New York
Current Conditions -  °F | °C
As of 3:58 AM on Monday 20 Oct 2014 (Local Time) from KGTB Reporting Station
Scattered Clouds Scattered Clouds  
Wind Chill: 27°   Ceiling: Unl
Heat Index: 33°   Visibility: 10mi
Dew Point: 31°   Wind: 6mph
Humidity: 92%   Direction: 150°SSE
Pressure: 29.98"   Gusts: NA
Location:  44.0981°N, 75.8331°W
Report Text: KGTB 200758Z AUTO 15005KT 10SM SCT042 01/M01 A2998 RMK AO2 SLP159 T00051006
Loading
Personal Weather Stations






























Interactive Weather Map New forecast layout! Learn more

10-Day Weather Forecast

Advertisements
Track Severe Weather on mobile